| time (UTC) | temp C | wind direction | speed KPH | gust KPH | rain 1hr cm | rain 24hr cm | rain mn cm | humidity % | barometer mb |
| 20260504175507 | 26 | 266 | 12.9 | 14.5 | 0.00 | 0.00 | 0.00 | 35 | 1002.9 |
| 20260504174502 | 26 | 287 | 9.7 | 14.5 | 0.00 | 0.00 | 0.00 | 37 | 1003.0 |
| 20260504173501 | 26 | 246 | 4.8 | 11.3 | 0.00 | 0.00 | 0.00 | 38 | 1003.3 |
| 20260504172500 | 26 | 293 | 14.5 | 27.4 | 0.00 | 0.00 | 0.00 | 36 | 1003.3 |
| 20260504171500 | 25 | 167 | 3.2 | 14.5 | 0.00 | 0.00 | 0.00 | 39 | 1003.3 |
| 20260504170459 | 25 | 282 | 9.7 | 16.1 | 0.00 | 0.00 | 0.00 | 41 | 1003.6 |
| 20260504150437 | 22 | 245 | 1.6 | 3.2 | 0.00 | 0.00 | 0.00 | 41 | 1004.8 |
| 20260504140429 | 19 | 226 | 4.8 | 12.9 | 0.00 | 0.00 | 0.00 | 48 | 1005.5 |
| 20260504130423 | 15 | 170 | 1.6 | 11.3 | 0.00 | 0.00 | 0.00 | 59 | 1006.3 |
| 20260504110357 | 10 | 191 | 0.0 | 0.0 | 0.00 | 0.00 | 0.00 | 72 | 1006.6 |
| 20260504100343 | 8 | 199 | 0.0 | 0.0 | 0.00 | 0.00 | 0.00 | 77 | 1006.9 |
| 20260504081320 | 11 | 216 | 0.0 | 1.6 | 0.00 | 0.00 | 0.00 | 67 | 1007.8 |
| 20260504080319 | 11 | 231 | 1.6 | 1.6 | 0.00 | 0.00 | 0.00 | 66 | 1008.1 |
| 20260504070309 | 10 | 207 | 0.0 | 1.6 | 0.00 | 0.00 | 0.00 | 75 | 1008.3 |
| 20260504050241 | 15 | 221 | 1.6 | 3.2 | 0.00 | 0.00 | 0.00 | 55 | 1009.4 |
| 20260504045238 | 15 | 243 | 1.6 | 4.8 | 0.00 | 0.00 | 0.00 | 54 | 1009.7 |
| 20260504044234 | 15 | 223 | 0.0 | 1.6 | 0.00 | 0.00 | 0.00 | 55 | 1009.7 |
| 20260504043233 | 15 | 224 | 0.0 | 0.0 | 0.00 | 0.00 | 0.00 | 56 | 1009.6 |
| 20260504042233 | 15 | 214 | 0.0 | 0.0 | 0.00 | 0.00 | 0.00 | 53 | 1009.9 |
| 20260504041231 | 15 | 227 | 0.0 | 1.6 | 0.00 | 0.00 | 0.00 | 53 | 1009.6 |
| 20260504040232 | 16 | 257 | 3.2 | 4.8 | 0.00 | 0.00 | 0.00 | 51 | 1009.6 |
| 20260504035231 | 16 | 244 | 1.6 | 3.2 | 0.00 | 0.00 | 0.00 | 51 | 1009.8 |
| 20260504034225 | 16 | 211 | 0.0 | 4.8 | 0.00 | 0.00 | 0.00 | 50 | 1009.8 |
| 20260504033220 | 16 | 253 | 3.2 | 4.8 | 0.00 | 0.00 | 0.00 | 49 | 1009.9 |
| 20260504032220 | 17 | 257 | 1.6 | 3.2 | 0.00 | 0.00 | 0.00 | 48 | 1010.0 |
| 20260504031219 | 17 | 224 | 3.2 | 9.7 | 0.00 | 0.00 | 0.00 | 48 | 1009.8 |
| 20260504030218 | 17 | 245 | 6.4 | 12.9 | 0.00 | 0.00 | 0.00 | 47 | 1009.7 |
| 20260504025217 | 17 | 262 | 6.4 | 9.7 | 0.00 | 0.00 | 0.00 | 46 | 1009.8 |
| 20260504024217 | 17 | 206 | 4.8 | 11.3 | 0.00 | 0.00 | 0.00 | 46 | 1009.6 |
| 20260504023215 | 17 | 274 | 3.2 | 6.4 | 0.00 | 0.00 | 0.00 | 46 | 1009.5 |
| 20260504022214 | 17 | 231 | 3.2 | 6.4 | 0.00 | 0.00 | 0.00 | 46 | 1009.5 |
| 20260504021214 | 18 | 263 | 3.2 | 4.8 | 0.00 | 0.00 | 0.00 | 45 | 1009.5 |
| 20260504020214 | 18 | 260 | 3.2 | 9.7 | 0.00 | 0.00 | 0.00 | 44 | 1009.3 |
| 20260504015212 | 18 | 274 | 8.0 | 9.7 | 0.00 | 0.00 | 0.00 | 43 | 1009.4 |
| 20260504014211 | 18 | 238 | 3.2 | 9.7 | 0.00 | 0.00 | 0.00 | 43 | 1009.2 |
| 20260504013212 | 19 | 261 | 9.7 | 11.3 | 0.00 | 0.00 | 0.00 | 42 | 1009.1 |
| 20260504012206 | 20 | 212 | 6.4 | 11.3 | 0.00 | 0.00 | 0.00 | 42 | 1009.0 |
| 20260504011205 | 20 | 229 | 9.7 | 11.3 | 0.00 | 0.00 | 0.00 | 41 | 1008.9 |
| 20260504010203 | 20 | 259 | 6.4 | 12.9 | 0.00 | 0.00 | 0.00 | 41 | 1008.9 |
| 20260504005203 | 20 | 275 | 4.8 | 12.9 | 0.00 | 0.00 | 0.00 | 41 | 1008.9 |
| 20260504004157 | 20 | 262 | 8.0 | 14.5 | 0.00 | 0.00 | 0.00 | 40 | 1008.9 |
| 20260504003156 | 21 | 252 | 6.4 | 11.3 | 0.00 | 0.00 | 0.00 | 39 | 1008.9 |
| 20260504002156 | 21 | 257 | 9.7 | 12.9 | 0.00 | 0.00 | 0.00 | 39 | 1008.8 |
| 20260504001156 | 21 | 261 | 6.4 | 16.1 | 0.00 | 0.00 | 0.00 | 40 | 1008.9 |
| 20260504000156 | 21 | 237 | 3.2 | 11.3 | 0.00 | 0.00 | 0.00 | 40 | 1008.8 |
| 20260503235151 | 21 | 275 | 4.8 | 16.1 | 0.00 | 0.00 | 0.00 | 40 | 1008.8 |
| 20260503234147 | 21 | 256 | 8.0 | 11.3 | 0.00 | 0.00 | 0.00 | 40 | 1008.9 |
| 20260503233145 | 21 | 263 | 3.2 | 14.5 | 0.00 | 0.00 | 0.00 | 40 | 1009.1 |
| 20260503232145 | 21 | 276 | 6.4 | 14.5 | 0.00 | 0.00 | 0.00 | 40 | 1009.0 |
| 20260503231145 | 21 | 303 | 12.9 | 22.5 | 0.00 | 0.00 | 0.00 | 41 | 1009.1 |
| 20260503230145 | 21 | 204 | 6.4 | 12.9 | 0.00 | 0.00 | 0.00 | 41 | 1009.1 |
| 20260503225142 | 21 | 254 | 6.4 | 20.9 | 0.00 | 0.00 | 0.00 | 41 | 1009.1 |
| 20260503224137 | 22 | 275 | 6.4 | 14.5 | 0.00 | 0.00 | 0.00 | 40 | 1009.0 |
| 20260503223137 | 22 | 268 | 6.4 | 14.5 | 0.00 | 0.00 | 0.00 | 41 | 1009.3 |
| 20260503222132 | 21 | 284 | 14.5 | 20.9 | 0.00 | 0.00 | 0.00 | 41 | 1009.0 |
| 20260503221127 | 21 | 344 | 6.4 | 17.7 | 0.00 | 0.00 | 0.00 | 40 | 1009.0 |
| 20260503220126 | 21 | 277 | 9.7 | 22.5 | 0.00 | 0.00 | 0.00 | 40 | 1009.3 |
| 20260503215126 | 22 | 252 | 4.8 | 11.3 | 0.00 | 0.00 | 0.00 | 41 | 1009.4 |
| 20260503214120 | 22 | 283 | 4.8 | 9.7 | 0.00 | 0.00 | 0.00 | 38 | 1009.3 |
| 20260503213116 | 22 | 255 | 8.0 | 12.9 | 0.00 | 0.00 | 0.00 | 39 | 1009.4 |
| 20260503212111 | 22 | 242 | 8.0 | 17.7 | 0.00 | 0.00 | 0.00 | 39 | 1009.3 |
| 20260503211109 | 21 | 276 | 12.9 | 29.0 | 0.00 | 0.00 | 0.00 | 38 | 1009.5 |
| 20260503210108 | 22 | 231 | 1.6 | 6.4 | 0.00 | 0.00 | 0.00 | 40 | 1009.6 |
| 20260503205107 | 22 | 280 | 6.4 | 11.3 | 0.00 | 0.00 | 0.00 | 38 | 1009.6 |
| 20260503204101 | 22 | 244 | 9.7 | 14.5 | 0.00 | 0.00 | 0.00 | 39 | 1009.9 |
| 20260503203101 | 21 | 241 | 4.8 | 16.1 | 0.00 | 0.00 | 0.00 | 40 | 1009.8 |
| 20260503202056 | 21 | 260 | 9.7 | 16.1 | 0.00 | 0.00 | 0.00 | 40 | 1010.0 |
| 20260503201051 | 21 | 236 | 4.8 | 9.7 | 0.00 | 0.00 | 0.00 | 41 | 1009.9 |
| 20260503200050 | 21 | 256 | 11.3 | 12.9 | 0.00 | 0.00 | 0.00 | 40 | 1010.2 |
| 20260503195049 | 21 | 277 | 14.5 | 25.7 | 0.00 | 0.00 | 0.00 | 40 | 1010.1 |
| 20260503194047 | 21 | 245 | 11.3 | 22.5 | 0.00 | 0.00 | 0.00 | 40 | 1010.2 |
| 20260503193044 | 21 | 247 | 6.4 | 24.1 | 0.00 | 0.00 | 0.00 | 41 | 1010.5 |
| 20260503192042 | 20 | 286 | 3.2 | 14.5 | 0.00 | 0.00 | 0.00 | 43 | 1010.5 |
| 20260503191042 | 20 | 285 | 6.4 | 12.9 | 0.00 | 0.00 | 0.00 | 41 | 1010.6 |
| 20260503190042 | 20 | 255 | 6.4 | 24.1 | 0.00 | 0.00 | 0.00 | 42 | 1010.9 |
| 20260503185038 | 19 | 283 | 17.7 | 33.8 | 0.00 | 0.00 | 0.00 | 43 | 1011.1 |
| 20260503184037 | 19 | 252 | 16.1 | 20.9 | 0.00 | 0.00 | 0.00 | 43 | 1010.9 |
| 20260503183037 | 20 | 225 | 14.5 | 20.9 | 0.00 | 0.00 | 0.00 | 41 | 1011.1 |
| 20260503182033 | 20 | 276 | 9.7 | 22.5 | 0.00 | 0.00 | 0.00 | 41 | 1011.2 |
| 20260503181032 | 19 | 272 | 4.8 | 17.7 | 0.00 | 0.00 | 0.00 | 43 | 1011.3 |